sensor_id;sensor_type;location;lat;lon;timestamp;P1;durP1;ratioP1;P2;durP2;ratioP2
66707;SDS011;53622;0.000;0.000;2023-03-01T00:02:37;2.65;;;2.25;;
66707;SDS011;53622;0.000;0.000;2023-03-01T00:05:07;2.60;;;2.40;;
66707;SDS011;53622;0.000;0.000;2023-03-01T00:07:39;2.70;;;2.50;;
66707;SDS011;53622;0.000;0.000;2023-03-01T00:11:10;4.38;;;2.65;;
66707;SDS011;53622;0.000;0.000;2023-03-01T00:13:43;2.78;;;2.58;;
66707;SDS011;53622;0.000;0.000;2023-03-01T00:16:14;3.10;;;2.80;;
66707;SDS011;53622;0.000;0.000;2023-03-01T00:18:45;2.72;;;2.53;;
66707;SDS011;53622;0.000;0.000;2023-03-01T00:21:14;3.10;;;2.50;;
66707;SDS011;53622;0.000;0.000;2023-03-01T00:23:44;2.60;;;2.40;;
66707;SDS011;53622;0.000;0.000;2023-03-01T00:26:16;2.70;;;2.50;;
66707;SDS011;53622;0.000;0.000;2023-03-01T00:28:48;2.22;;;2.00;;
66707;SDS011;53622;0.000;0.000;2023-03-01T00:31:19;2.50;;;2.30;;
66707;SDS011;53622;0.000;0.000;2023-03-01T00:33:51;2.50;;;2.28;;
66707;SDS011;53622;0.000;0.000;2023-03-01T00:36:24;2.72;;;2.40;;
66707;SDS011;53622;0.000;0.000;2023-03-01T00:38:56;2.38;;;2.17;;
66707;SDS011;53622;0.000;0.000;2023-03-01T00:41:26;3.25;;;2.95;;
66707;SDS011;53622;0.000;0.000;2023-03-01T00:43:57;2.85;;;2.58;;
66707;SDS011;53622;0.000;0.000;2023-03-01T00:46:26;2.63;;;2.42;;
66707;SDS011;53622;0.000;0.000;2023-03-01T00:48:58;3.17;;;2.88;;
66707;SDS011;53622;0.000;0.000;2023-03-01T00:51:29;2.65;;;2.45;;
66707;SDS011;53622;0.000;0.000;2023-03-01T00:53:59;2.50;;;2.30;;
66707;SDS011;53622;0.000;0.000;2023-03-01T00:56:29;2.30;;;2.10;;
66707;SDS011;53622;0.000;0.000;2023-03-01T00:59:01;3.10;;;2.80;;
66707;SDS011;53622;0.000;0.000;2023-03-01T01:01:30;2.83;;;2.55;;
66707;SDS011;53622;0.000;0.000;2023-03-01T01:04:01;2.92;;;2.60;;
66707;SDS011;53622;0.000;0.000;2023-03-01T01:06:33;3.42;;;2.78;;
66707;SDS011;53622;0.000;0.000;2023-03-01T01:09:04;2.55;;;2.35;;
66707;SDS011;53622;0.000;0.000;2023-03-01T01:11:35;3.00;;;2.70;;
66707;SDS011;53622;0.000;0.000;2023-03-01T01:14:06;3.13;;;2.80;;
66707;SDS011;53622;0.000;0.000;2023-03-01T01:16:35;2.75;;;2.55;;
66707;SDS011;53622;0.000;0.000;2023-03-01T01:19:04;3.17;;;2.88;;
66707;SDS011;53622;0.000;0.000;2023-03-01T01:21:34;2.55;;;2.35;;
66707;SDS011;53622;0.000;0.000;2023-03-01T01:24:04;2.92;;;2.60;;
66707;SDS011;53622;0.000;0.000;2023-03-01T01:26:34;3.03;;;2.75;;
66707;SDS011;53622;0.000;0.000;2023-03-01T01:29:06;4.43;;;2.60;;
66707;SDS011;53622;0.000;0.000;2023-03-01T01:31:36;3.28;;;2.97;;
66707;SDS011;53622;0.000;0.000;2023-03-01T01:34:09;2.80;;;2.60;;
66707;SDS011;53622;0.000;0.000;2023-03-01T01:36:43;2.90;;;2.70;;
66707;SDS011;53622;0.000;0.000;2023-03-01T01:39:12;3.10;;;2.90;;
66707;SDS011;53622;0.000;0.000;2023-03-01T01:41:42;3.13;;;2.90;;
66707;SDS011;53622;0.000;0.000;2023-03-01T01:44:14;3.05;;;2.75;;
66707;SDS011;53622;0.000;0.000;2023-03-01T01:46:46;3.20;;;2.60;;
66707;SDS011;53622;0.000;0.000;2023-03-01T01:49:23;2.83;;;2.63;;
66707;SDS011;53622;0.000;0.000;2023-03-01T01:51:57;2.88;;;2.67;;
66707;SDS011;53622;0.000;0.000;2023-03-01T01:54:37;3.28;;;3.00;;
66707;SDS011;53622;0.000;0.000;2023-03-01T01:57:11;3.20;;;2.90;;
66707;SDS011;53622;0.000;0.000;2023-03-01T01:59:45;2.80;;;2.60;;
66707;SDS011;53622;0.000;0.000;2023-03-01T02:02:19;2.60;;;2.40;;
66707;SDS011;53622;0.000;0.000;2023-03-01T02:04:49;2.35;;;2.20;;
66707;SDS011;53622;0.000;0.000;2023-03-01T02:07:25;3.10;;;2.80;;
66707;SDS011;53622;0.000;0.000;2023-03-01T02:09:56;3.92;;;2.90;;
66707;SDS011;53622;0.000;0.000;2023-03-01T02:12:26;3.05;;;2.78;;
66707;SDS011;53622;0.000;0.000;2023-03-01T02:14:58;2.88;;;2.67;;
66707;SDS011;53622;0.000;0.000;2023-03-01T02:17:27;2.88;;;2.67;;
66707;SDS011;53622;0.000;0.000;2023-03-01T02:20:00;3.10;;;2.80;;
66707;SDS011;53622;0.000;0.000;2023-03-01T02:22:39;3.10;;;2.88;;
66707;SDS011;53622;0.000;0.000;2023-03-01T02:25:12;2.78;;;2.53;;
66707;SDS011;53622;0.000;0.000;2023-03-01T02:27:56;3.40;;;3.10;;
66707;SDS011;53622;0.000;0.000;2023-03-01T02:30:31;2.88;;;2.67;;
66707;SDS011;53622;0.000;0.000;2023-03-01T02:33:02;2.63;;;2.42;;
66707;SDS011;53622;0.000;0.000;2023-03-01T02:35:32;3.40;;;3.20;;
66707;SDS011;53622;0.000;0.000;2023-03-01T02:38:06;3.40;;;3.10;;
66707;SDS011;53622;0.000;0.000;2023-03-01T02:40:37;3.03;;;2.75;;
66707;SDS011;53622;0.000;0.000;2023-03-01T02:43:08;3.17;;;2.95;;
66707;SDS011;53622;0.000;0.000;2023-03-01T02:45:47;3.35;;;3.08;;
66707;SDS011;53622;0.000;0.000;2023-03-01T02:48:17;3.00;;;2.80;;
66707;SDS011;53622;0.000;0.000;2023-03-01T02:50:52;3.22;;;2.92;;
66707;SDS011;53622;0.000;0.000;2023-03-01T02:53:35;2.72;;;2.53;;
66707;SDS011;53622;0.000;0.000;2023-03-01T02:56:10;3.40;;;3.08;;
66707;SDS011;53622;0.000;0.000;2023-03-01T02:58:41;3.30;;;3.00;;
66707;SDS011;53622;0.000;0.000;2023-03-01T03:01:17;3.47;;;3.17;;
66707;SDS011;53622;0.000;0.000;2023-03-01T03:03:47;2.90;;;2.70;;
66707;SDS011;53622;0.000;0.000;2023-03-01T03:06:16;2.88;;;2.67;;
66707;SDS011;53622;0.000;0.000;2023-03-01T03:12:39;3.15;;;2.85;;
66707;SDS011;53622;0.000;0.000;2023-03-01T03:15:09;3.03;;;2.83;;
66707;SDS011;53622;0.000;0.000;2023-03-01T03:17:41;3.20;;;2.90;;
66707;SDS011;53622;0.000;0.000;2023-03-01T03:20:12;3.03;;;2.83;;
66707;SDS011;53622;0.000;0.000;2023-03-01T03:22:47;3.00;;;2.80;;
66707;SDS011;53622;0.000;0.000;2023-03-01T03:25:17;3.17;;;2.90;;
66707;SDS011;53622;0.000;0.000;2023-03-01T03:27:50;3.17;;;2.90;;
66707;SDS011;53622;0.000;0.000;2023-03-01T03:30:24;3.08;;;2.88;;
66707;SDS011;53622;0.000;0.000;2023-03-01T03:32:57;3.33;;;3.03;;
66707;SDS011;53622;0.000;0.000;2023-03-01T03:35:28;3.20;;;2.90;;
66707;SDS011;53622;0.000;0.000;2023-03-01T03:38:00;3.00;;;2.80;;
66707;SDS011;53622;0.000;0.000;2023-03-01T03:40:34;3.30;;;3.00;;
66707;SDS011;53622;0.000;0.000;2023-03-01T03:43:05;3.25;;;3.05;;
66707;SDS011;53622;0.000;0.000;2023-03-01T03:45:37;2.90;;;2.70;;
66707;SDS011;53622;0.000;0.000;2023-03-01T03:48:09;3.38;;;3.08;;
66707;SDS011;53622;0.000;0.000;2023-03-01T03:50:38;3.28;;;3.08;;
66707;SDS011;53622;0.000;0.000;2023-03-01T03:53:09;3.20;;;3.00;;
66707;SDS011;53622;0.000;0.000;2023-03-01T03:55:40;2.72;;;2.53;;
66707;SDS011;53622;0.000;0.000;2023-03-01T03:58:11;3.47;;;3.17;;
66707;SDS011;53622;0.000;0.000;2023-03-01T04:00:41;2.80;;;2.60;;
66707;SDS011;53622;0.000;0.000;2023-03-01T04:03:13;3.03;;;2.72;;
66707;SDS011;53622;0.000;0.000;2023-03-01T04:05:46;3.08;;;2.88;;
66707;SDS011;53622;0.000;0.000;2023-03-01T04:08:17;3.20;;;2.90;;
66707;SDS011;53622;0.000;0.000;2023-03-01T04:10:49;3.58;;;3.20;;
66707;SDS011;53622;0.000;0.000;2023-03-01T04:13:20;2.80;;;2.60;;
66707;SDS011;53622;0.000;0.000;2023-03-01T04:15:52;3.42;;;2.92;;
66707;SDS011;53622;0.000;0.000;2023-03-01T04:18:24;3.05;;;2.75;;
66707;SDS011;53622;0.000;0.000;2023-03-01T04:20:53;2.97;;;2.78;;
66707;SDS011;53622;0.000;0.000;2023-03-01T04:23:23;3.03;;;2.83;;
66707;SDS011;53622;0.000;0.000;2023-03-01T04:25:53;3.00;;;2.80;;
66707;SDS011;53622;0.000;0.000;2023-03-01T04:28:24;3.22;;;3.03;;
66707;SDS011;53622;0.000;0.000;2023-03-01T04:30:55;2.70;;;2.50;;
66707;SDS011;53622;0.000;0.000;2023-03-01T04:33:26;3.13;;;2.90;;
66707;SDS011;53622;0.000;0.000;2023-03-01T04:35:56;3.20;;;2.90;;
66707;SDS011;53622;0.000;0.000;2023-03-01T04:38:25;3.03;;;2.80;;
66707;SDS011;53622;0.000;0.000;2023-03-01T04:40:54;3.10;;;2.90;;
66707;SDS011;53622;0.000;0.000;2023-03-01T04:43:23;2.60;;;2.40;;
66707;SDS011;53622;0.000;0.000;2023-03-01T04:45:53;3.42;;;3.15;;
66707;SDS011;53622;0.000;0.000;2023-03-01T04:48:22;3.20;;;3.00;;
66707;SDS011;53622;0.000;0.000;2023-03-01T04:50:53;3.28;;;2.97;;
66707;SDS011;53622;0.000;0.000;2023-03-01T04:53:22;3.05;;;2.53;;
66707;SDS011;53622;0.000;0.000;2023-03-01T04:55:51;3.08;;;2.88;;
66707;SDS011;53622;0.000;0.000;2023-03-01T04:58:22;3.30;;;3.10;;
66707;SDS011;53622;0.000;0.000;2023-03-01T05:01:01;2.88;;;2.67;;
66707;SDS011;53622;0.000;0.000;2023-03-01T05:03:42;2.97;;;2.78;;
66707;SDS011;53622;0.000;0.000;2023-03-01T05:06:13;3.42;;;3.10;;
66707;SDS011;53622;0.000;0.000;2023-03-01T05:08:44;2.80;;;2.60;;
66707;SDS011;53622;0.000;0.000;2023-03-01T05:11:13;2.97;;;2.70;;
66707;SDS011;53622;0.000;0.000;2023-03-01T05:13:42;3.40;;;3.10;;
66707;SDS011;53622;0.000;0.000;2023-03-01T05:16:12;3.05;;;2.75;;
66707;SDS011;53622;0.000;0.000;2023-03-01T05:18:42;3.10;;;2.80;;
66707;SDS011;53622;0.000;0.000;2023-03-01T05:21:12;3.45;;;3.20;;
66707;SDS011;53622;0.000;0.000;2023-03-01T05:23:44;3.95;;;3.00;;
66707;SDS011;53622;0.000;0.000;2023-03-01T05:26:14;3.03;;;2.83;;
66707;SDS011;53622;0.000;0.000;2023-03-01T05:28:59;3.00;;;2.80;;
66707;SDS011;53622;0.000;0.000;2023-03-01T05:31:29;3.20;;;3.00;;
66707;SDS011;53622;0.000;0.000;2023-03-01T05:33:58;3.10;;;2.90;;
66707;SDS011;53622;0.000;0.000;2023-03-01T05:36:30;3.00;;;2.80;;
66707;SDS011;53622;0.000;0.000;2023-03-01T05:38:59;4.13;;;3.15;;
66707;SDS011;53622;0.000;0.000;2023-03-01T05:41:29;3.17;;;2.88;;
66707;SDS011;53622;0.000;0.000;2023-03-01T05:43:58;3.22;;;2.95;;
66707;SDS011;53622;0.000;0.000;2023-03-01T05:46:27;3.53;;;3.22;;
66707;SDS011;53622;0.000;0.000;2023-03-01T05:48:57;2.90;;;2.70;;
66707;SDS011;53622;0.000;0.000;2023-03-01T05:51:27;3.20;;;2.90;;
66707;SDS011;53622;0.000;0.000;2023-03-01T05:53:58;3.15;;;2.95;;
66707;SDS011;53622;0.000;0.000;2023-03-01T05:56:27;5.53;;;2.70;;
66707;SDS011;53622;0.000;0.000;2023-03-01T05:58:56;3.30;;;2.58;;
66707;SDS011;53622;0.000;0.000;2023-03-01T06:01:26;8.63;;;3.20;;
66707;SDS011;53622;0.000;0.000;2023-03-01T06:03:56;4.03;;;2.95;;
66707;SDS011;53622;0.000;0.000;2023-03-01T06:06:25;11.90;;;3.50;;
66707;SDS011;53622;0.000;0.000;2023-03-01T06:08:55;7.18;;;3.28;;
66707;SDS011;53622;0.000;0.000;2023-03-01T06:11:26;7.53;;;3.10;;
66707;SDS011;53622;0.000;0.000;2023-03-01T06:13:55;10.73;;;4.03;;
66707;SDS011;53622;0.000;0.000;2023-03-01T06:16:24;6.00;;;3.35;;
66707;SDS011;53622;0.000;0.000;2023-03-01T06:18:54;7.68;;;5.25;;
66707;SDS011;53622;0.000;0.000;2023-03-01T06:21:23;10.43;;;9.20;;
66707;SDS011;53622;0.000;0.000;2023-03-01T06:23:53;15.50;;;8.25;;
66707;SDS011;53622;0.000;0.000;2023-03-01T06:26:22;9.52;;;6.93;;
66707;SDS011;53622;0.000;0.000;2023-03-01T06:28:53;9.20;;;6.80;;
66707;SDS011;53622;0.000;0.000;2023-03-01T06:31:22;8.05;;;5.40;;
66707;SDS011;53622;0.000;0.000;2023-03-01T06:33:51;9.95;;;5.65;;
66707;SDS011;53622;0.000;0.000;2023-03-01T06:36:20;7.80;;;5.35;;
66707;SDS011;53622;0.000;0.000;2023-03-01T06:38:49;6.15;;;5.55;;
66707;SDS011;53622;0.000;0.000;2023-03-01T06:41:19;5.20;;;4.70;;
66707;SDS011;53622;0.000;0.000;2023-03-01T06:43:48;5.43;;;4.80;;
66707;SDS011;53622;0.000;0.000;2023-03-01T06:46:19;6.22;;;4.63;;
66707;SDS011;53622;0.000;0.000;2023-03-01T06:48:48;9.32;;;4.63;;
66707;SDS011;53622;0.000;0.000;2023-03-01T06:51:19;5.05;;;3.92;;
66707;SDS011;53622;0.000;0.000;2023-03-01T06:53:48;4.50;;;4.00;;
66707;SDS011;53622;0.000;0.000;2023-03-01T06:56:18;6.13;;;4.22;;
66707;SDS011;53622;0.000;0.000;2023-03-01T06:58:47;5.43;;;3.30;;
66707;SDS011;53622;0.000;0.000;2023-03-01T07:01:16;7.60;;;3.63;;
66707;SDS011;53622;0.000;0.000;2023-03-01T07:03:47;4.53;;;3.55;;
66707;SDS011;53622;0.000;0.000;2023-03-01T07:06:17;7.18;;;3.50;;
66707;SDS011;53622;0.000;0.000;2023-03-01T07:08:46;5.68;;;5.18;;
66707;SDS011;53622;0.000;0.000;2023-03-01T07:11:16;4.65;;;3.20;;
66707;SDS011;53622;0.000;0.000;2023-03-01T07:13:45;7.88;;;3.40;;
66707;SDS011;53622;0.000;0.000;2023-03-01T07:16:14;4.07;;;3.67;;
66707;SDS011;53622;0.000;0.000;2023-03-01T07:18:45;5.35;;;3.60;;
66707;SDS011;53622;0.000;0.000;2023-03-01T07:21:14;6.97;;;3.63;;
66707;SDS011;53622;0.000;0.000;2023-03-01T07:23:46;4.05;;;3.17;;
66707;SDS011;53622;0.000;0.000;2023-03-01T07:26:16;3.75;;;3.20;;
66707;SDS011;53622;0.000;0.000;2023-03-01T07:28:45;3.60;;;3.17;;
66707;SDS011;53622;0.000;0.000;2023-03-01T07:31:15;4.30;;;3.78;;
66707;SDS011;53622;0.000;0.000;2023-03-01T07:33:45;3.20;;;2.90;;
66707;SDS011;53622;0.000;0.000;2023-03-01T07:36:14;3.50;;;3.20;;
66707;SDS011;53622;0.000;0.000;2023-03-01T07:38:44;4.25;;;3.67;;
66707;SDS011;53622;0.000;0.000;2023-03-01T07:41:13;3.90;;;3.58;;
66707;SDS011;53622;0.000;0.000;2023-03-01T07:43:42;4.22;;;3.53;;
66707;SDS011;53622;0.000;0.000;2023-03-01T07:46:11;3.42;;;3.13;;
66707;SDS011;53622;0.000;0.000;2023-03-01T07:48:41;3.63;;;3.33;;
66707;SDS011;53622;0.000;0.000;2023-03-01T07:51:11;5.18;;;3.42;;
66707;SDS011;53622;0.000;0.000;2023-03-01T07:53:41;4.80;;;3.67;;
66707;SDS011;53622;0.000;0.000;2023-03-01T07:56:11;4.55;;;3.67;;
66707;SDS011;53622;0.000;0.000;2023-03-01T07:58:42;4.20;;;3.70;;
66707;SDS011;53622;0.000;0.000;2023-03-01T08:01:12;5.05;;;4.50;;
66707;SDS011;53622;0.000;0.000;2023-03-01T08:03:43;8.48;;;7.20;;
66707;SDS011;53622;0.000;0.000;2023-03-01T08:06:14;13.18;;;6.95;;
66707;SDS011;53622;0.000;0.000;2023-03-01T08:08:45;7.10;;;6.32;;
66707;SDS011;53622;0.000;0.000;2023-03-01T08:11:14;18.83;;;8.45;;
66707;SDS011;53622;0.000;0.000;2023-03-01T08:13:44;12.88;;;8.48;;
66707;SDS011;53622;0.000;0.000;2023-03-01T08:16:18;13.18;;;7.25;;
66707;SDS011;53622;0.000;0.000;2023-03-01T08:18:48;10.05;;;5.65;;
66707;SDS011;53622;0.000;0.000;2023-03-01T08:21:18;11.40;;;5.60;;
66707;SDS011;53622;0.000;0.000;2023-03-01T08:23:48;8.77;;;4.93;;
66707;SDS011;53622;0.000;0.000;2023-03-01T08:26:17;7.72;;;4.80;;
66707;SDS011;53622;0.000;0.000;2023-03-01T08:28:49;5.15;;;3.92;;
66707;SDS011;53622;0.000;0.000;2023-03-01T08:31:20;6.70;;;4.60;;
66707;SDS011;53622;0.000;0.000;2023-03-01T08:33:51;11.63;;;4.50;;
66707;SDS011;53622;0.000;0.000;2023-03-01T08:36:25;5.55;;;3.97;;
66707;SDS011;53622;0.000;0.000;2023-03-01T08:38:56;5.18;;;4.15;;
66707;SDS011;53622;0.000;0.000;2023-03-01T08:41:25;8.30;;;7.43;;
66707;SDS011;53622;0.000;0.000;2023-03-01T08:43:55;7.93;;;5.78;;
66707;SDS011;53622;0.000;0.000;2023-03-01T08:46:26;4.53;;;4.10;;
66707;SDS011;53622;0.000;0.000;2023-03-01T08:48:57;7.97;;;4.47;;
66707;SDS011;53622;0.000;0.000;2023-03-01T08:51:27;4.88;;;4.13;;
66707;SDS011;53622;0.000;0.000;2023-03-01T08:53:59;4.75;;;3.60;;
66707;SDS011;53622;0.000;0.000;2023-03-01T08:56:28;7.65;;;4.10;;
66707;SDS011;53622;0.000;0.000;2023-03-01T08:58:58;6.20;;;4.18;;
66707;SDS011;53622;0.000;0.000;2023-03-01T09:01:27;7.30;;;3.92;;
66707;SDS011;53622;0.000;0.000;2023-03-01T09:03:56;4.32;;;3.80;;
66707;SDS011;53622;0.000;0.000;2023-03-01T09:06:26;4.50;;;3.30;;
66707;SDS011;53622;0.000;0.000;2023-03-01T09:08:58;4.88;;;3.72;;
66707;SDS011;53622;0.000;0.000;2023-03-01T09:11:28;6.03;;;4.15;;
66707;SDS011;53622;0.000;0.000;2023-03-01T09:13:57;7.05;;;3.85;;
66707;SDS011;53622;0.000;0.000;2023-03-01T09:16:26;4.47;;;3.40;;
66707;SDS011;53622;0.000;0.000;2023-03-01T09:18:57;4.70;;;3.75;;
66707;SDS011;53622;0.000;0.000;2023-03-01T09:21:28;4.53;;;3.33;;
66707;SDS011;53622;0.000;0.000;2023-03-01T09:24:07;4.60;;;3.40;;
66707;SDS011;53622;0.000;0.000;2023-03-01T09:26:42;3.47;;;3.17;;
66707;SDS011;53622;0.000;0.000;2023-03-01T09:29:16;3.78;;;3.35;;
66707;SDS011;53622;0.000;0.000;2023-03-01T09:31:45;3.47;;;2.83;;
66707;SDS011;53622;0.000;0.000;2023-03-01T09:34:15;4.20;;;2.92;;
66707;SDS011;53622;0.000;0.000;2023-03-01T09:36:51;4.22;;;3.47;;
66707;SDS011;53622;0.000;0.000;2023-03-01T09:39:21;3.53;;;2.67;;
66707;SDS011;53622;0.000;0.000;2023-03-01T09:41:53;4.47;;;2.75;;
66707;SDS011;53622;0.000;0.000;2023-03-01T09:44:31;3.75;;;2.90;;
66707;SDS011;53622;0.000;0.000;2023-03-01T09:47:08;3.40;;;3.10;;
66707;SDS011;53622;0.000;0.000;2023-03-01T09:49:40;3.47;;;2.92;;
66707;SDS011;53622;0.000;0.000;2023-03-01T09:52:21;2.95;;;2.60;;
66707;SDS011;53622;0.000;0.000;2023-03-01T09:54:56;3.63;;;3.33;;
66707;SDS011;53622;0.000;0.000;2023-03-01T09:57:28;3.47;;;3.05;;
66707;SDS011;53622;0.000;0.000;2023-03-01T10:00:20;3.53;;;2.80;;
66707;SDS011;53622;0.000;0.000;2023-03-01T10:03:00;3.08;;;2.88;;
66707;SDS011;53622;0.000;0.000;2023-03-01T10:05:41;3.53;;;2.63;;
66707;SDS011;53622;0.000;0.000;2023-03-01T10:08:24;3.92;;;3.40;;
66707;SDS011;53622;0.000;0.000;2023-03-01T10:11:17;3.40;;;3.10;;
66707;SDS011;53622;0.000;0.000;2023-03-01T10:13:54;3.85;;;2.67;;
66707;SDS011;53622;0.000;0.000;2023-03-01T10:16:28;4.65;;;2.92;;
66707;SDS011;53622;0.000;0.000;2023-03-01T10:19:06;4.35;;;3.28;;
66707;SDS011;53622;0.000;0.000;2023-03-01T10:21:43;4.45;;;3.42;;
66707;SDS011;53622;0.000;0.000;2023-03-01T10:24:16;4.63;;;4.20;;
66707;SDS011;53622;0.000;0.000;2023-03-01T10:26:51;5.05;;;3.30;;
66707;SDS011;53622;0.000;0.000;2023-03-01T10:29:24;3.88;;;3.35;;
66707;SDS011;53622;0.000;0.000;2023-03-01T10:31:58;9.23;;;4.32;;
66707;SDS011;53622;0.000;0.000;2023-03-01T10:34:29;5.32;;;3.50;;
66707;SDS011;53622;0.000;0.000;2023-03-01T10:37:09;4.65;;;3.63;;
66707;SDS011;53622;0.000;0.000;2023-03-01T10:42:33;4.63;;;3.50;;
66707;SDS011;53622;0.000;0.000;2023-03-01T10:45:15;4.15;;;3.75;;
66707;SDS011;53622;0.000;0.000;2023-03-01T10:48:02;3.50;;;3.20;;
66707;SDS011;53622;0.000;0.000;2023-03-01T10:50:40;3.60;;;3.25;;
66707;SDS011;53622;0.000;0.000;2023-03-01T10:53:22;3.95;;;3.35;;
66707;SDS011;53622;0.000;0.000;2023-03-01T10:55:58;4.57;;;3.45;;
66707;SDS011;53622;0.000;0.000;2023-03-01T10:58:29;3.65;;;3.30;;
66707;SDS011;53622;0.000;0.000;2023-03-01T11:01:05;3.60;;;3.30;;
66707;SDS011;53622;0.000;0.000;2023-03-01T11:04:03;3.70;;;3.15;;
66707;SDS011;53622;0.000;0.000;2023-03-01T11:06:39;3.42;;;3.05;;
66707;SDS011;53622;0.000;0.000;2023-03-01T11:09:13;3.65;;;3.30;;
66707;SDS011;53622;0.000;0.000;2023-03-01T11:11:45;3.22;;;2.92;;
66707;SDS011;53622;0.000;0.000;2023-03-01T11:14:20;3.10;;;2.90;;
66707;SDS011;53622;0.000;0.000;2023-03-01T11:16:59;3.63;;;3.33;;
66707;SDS011;53622;0.000;0.000;2023-03-01T11:19:31;3.47;;;3.17;;
66707;SDS011;53622;0.000;0.000;2023-03-01T11:22:02;3.50;;;3.20;;
66707;SDS011;53622;0.000;0.000;2023-03-01T11:24:34;4.97;;;4.57;;
66707;SDS011;53622;0.000;0.000;2023-03-01T11:27:18;3.53;;;3.20;;
66707;SDS011;53622;0.000;0.000;2023-03-01T11:29:51;7.05;;;4.00;;
66707;SDS011;53622;0.000;0.000;2023-03-01T11:32:29;3.65;;;3.35;;
66707;SDS011;53622;0.000;0.000;2023-03-01T11:35:04;4.50;;;3.72;;
66707;SDS011;53622;0.000;0.000;2023-03-01T11:37:40;4.32;;;3.03;;
66707;SDS011;53622;0.000;0.000;2023-03-01T11:40:16;5.38;;;3.65;;
66707;SDS011;53622;0.000;0.000;2023-03-01T11:43:04;3.75;;;3.15;;
66707;SDS011;53622;0.000;0.000;2023-03-01T11:45:48;5.32;;;3.15;;
66707;SDS011;53622;0.000;0.000;2023-03-01T11:48:35;4.78;;;3.00;;
66707;SDS011;53622;0.000;0.000;2023-03-01T11:51:19;5.57;;;3.10;;
66707;SDS011;53622;0.000;0.000;2023-03-01T11:53:57;3.58;;;3.28;;
66707;SDS011;53622;0.000;0.000;2023-03-01T11:56:34;5.50;;;3.35;;
66707;SDS011;53622;0.000;0.000;2023-03-01T11:59:12;7.20;;;3.35;;
66707;SDS011;53622;0.000;0.000;2023-03-01T12:02:02;8.10;;;4.25;;
66707;SDS011;53622;0.000;0.000;2023-03-01T12:04:52;7.45;;;4.32;;
66707;SDS011;53622;0.000;0.000;2023-03-01T12:07:36;10.88;;;4.80;;
66707;SDS011;53622;0.000;0.000;2023-03-01T12:10:17;10.32;;;4.97;;
66707;SDS011;53622;0.000;0.000;2023-03-01T12:12:57;8.93;;;4.35;;
66707;SDS011;53622;0.000;0.000;2023-03-01T12:15:50;7.75;;;3.90;;
66707;SDS011;53622;0.000;0.000;2023-03-01T12:18:43;6.35;;;3.95;;
66707;SDS011;53622;0.000;0.000;2023-03-01T12:21:39;6.43;;;3.67;;
66707;SDS011;53622;0.000;0.000;2023-03-01T12:24:26;7.25;;;3.67;;
66707;SDS011;53622;0.000;0.000;2023-03-01T12:27:26;6.03;;;4.20;;
66707;SDS011;53622;0.000;0.000;2023-03-01T12:30:14;8.23;;;4.03;;
66707;SDS011;53622;0.000;0.000;2023-03-01T12:32:57;5.80;;;3.92;;
66707;SDS011;53622;0.000;0.000;2023-03-01T12:35:44;9.05;;;4.03;;
66707;SDS011;53622;0.000;0.000;2023-03-01T12:38:30;7.53;;;3.60;;
66707;SDS011;53622;0.000;0.000;2023-03-01T12:44:15;6.13;;;3.60;;
66707;SDS011;53622;0.000;0.000;2023-03-01T12:46:58;5.38;;;4.05;;
66707;SDS011;53622;0.000;0.000;2023-03-01T12:49:39;7.18;;;3.60;;
66707;SDS011;53622;0.000;0.000;2023-03-01T12:52:14;6.07;;;3.20;;
66707;SDS011;53622;0.000;0.000;2023-03-01T12:54:49;5.15;;;3.67;;
66707;SDS011;53622;0.000;0.000;2023-03-01T12:57:24;3.50;;;3.20;;
66707;SDS011;53622;0.000;0.000;2023-03-01T13:00:09;7.38;;;3.38;;
66707;SDS011;53622;0.000;0.000;2023-03-01T13:02:49;5.93;;;3.63;;
66707;SDS011;53622;0.000;0.000;2023-03-01T13:05:26;3.65;;;3.10;;
66707;SDS011;53622;0.000;0.000;2023-03-01T13:08:07;4.97;;;3.53;;
66707;SDS011;53622;0.000;0.000;2023-03-01T13:10:43;3.67;;;3.20;;
66707;SDS011;53622;0.000;0.000;2023-03-01T13:13:20;3.95;;;3.53;;
66707;SDS011;53622;0.000;0.000;2023-03-01T13:15:50;4.55;;;3.10;;
66707;SDS011;53622;0.000;0.000;2023-03-01T13:18:28;4.32;;;3.88;;
66707;SDS011;53622;0.000;0.000;2023-03-01T13:21:02;4.43;;;3.20;;
66707;SDS011;53622;0.000;0.000;2023-03-01T13:23:33;4.88;;;3.70;;
66707;SDS011;53622;0.000;0.000;2023-03-01T13:26:06;4.22;;;3.30;;
66707;SDS011;53622;0.000;0.000;2023-03-01T13:28:50;3.25;;;2.95;;
66707;SDS011;53622;0.000;0.000;2023-03-01T13:37:33;4.53;;;3.20;;
66707;SDS011;53622;0.000;0.000;2023-03-01T13:40:56;3.40;;;3.10;;
66707;SDS011;53622;0.000;0.000;2023-03-01T13:46:07;3.72;;;3.38;;
66707;SDS011;53622;0.000;0.000;2023-03-01T13:48:39;4.30;;;3.08;;
66707;SDS011;53622;0.000;0.000;2023-03-01T13:51:11;4.93;;;3.50;;
66707;SDS011;53622;0.000;0.000;2023-03-01T13:53:42;3.67;;;3.38;;
66707;SDS011;53622;0.000;0.000;2023-03-01T13:56:15;3.70;;;3.40;;
66707;SDS011;53622;0.000;0.000;2023-03-01T13:58:49;3.08;;;2.78;;
66707;SDS011;53622;0.000;0.000;2023-03-01T14:01:21;3.90;;;3.50;;
66707;SDS011;53622;0.000;0.000;2023-03-01T14:03:57;3.28;;;2.88;;
66707;SDS011;53622;0.000;0.000;2023-03-01T14:06:28;4.10;;;3.70;;
66707;SDS011;53622;0.000;0.000;2023-03-01T14:09:03;4.53;;;3.60;;
66707;SDS011;53622;0.000;0.000;2023-03-01T14:11:41;7.03;;;4.03;;
66707;SDS011;53622;0.000;0.000;2023-03-01T14:14:31;4.07;;;3.47;;
66707;SDS011;53622;0.000;0.000;2023-03-01T14:20:23;6.57;;;3.78;;
66707;SDS011;53622;0.000;0.000;2023-03-01T14:22:55;5.15;;;4.30;;
66707;SDS011;53622;0.000;0.000;2023-03-01T14:25:27;4.90;;;4.43;;
66707;SDS011;53622;0.000;0.000;2023-03-01T14:27:59;5.60;;;4.20;;
66707;SDS011;53622;0.000;0.000;2023-03-01T14:30:34;4.97;;;4.20;;
66707;SDS011;53622;0.000;0.000;2023-03-01T14:33:17;7.78;;;4.13;;
66707;SDS011;53622;0.000;0.000;2023-03-01T14:35:52;4.70;;;4.30;;
66707;SDS011;53622;0.000;0.000;2023-03-01T14:38:28;4.72;;;4.25;;
66707;SDS011;53622;0.000;0.000;2023-03-01T14:41:03;5.60;;;4.10;;
66707;SDS011;53622;0.000;0.000;2023-03-01T14:43:36;5.68;;;4.13;;
66707;SDS011;53622;0.000;0.000;2023-03-01T14:46:18;4.13;;;3.75;;
66707;SDS011;53622;0.000;0.000;2023-03-01T14:48:50;4.88;;;4.05;;
66707;SDS011;53622;0.000;0.000;2023-03-01T14:51:22;4.93;;;3.60;;
66707;SDS011;53622;0.000;0.000;2023-03-01T14:53:52;4.70;;;4.30;;
66707;SDS011;53622;0.000;0.000;2023-03-01T14:56:22;4.60;;;3.85;;
66707;SDS011;53622;0.000;0.000;2023-03-01T14:58:51;4.47;;;4.07;;
66707;SDS011;53622;0.000;0.000;2023-03-01T15:01:22;8.10;;;4.05;;
66707;SDS011;53622;0.000;0.000;2023-03-01T15:03:52;6.93;;;4.35;;
66707;SDS011;53622;0.000;0.000;2023-03-01T15:06:22;7.00;;;4.13;;
66707;SDS011;53622;0.000;0.000;2023-03-01T15:08:52;6.70;;;4.20;;
66707;SDS011;53622;0.000;0.000;2023-03-01T15:11:24;4.60;;;4.20;;
66707;SDS011;53622;0.000;0.000;2023-03-01T15:13:57;6.13;;;4.55;;
66707;SDS011;53622;0.000;0.000;2023-03-01T15:16:28;4.93;;;4.45;;
66707;SDS011;53622;0.000;0.000;2023-03-01T15:19:00;4.80;;;4.30;;
66707;SDS011;53622;0.000;0.000;2023-03-01T15:21:31;5.35;;;4.15;;
66707;SDS011;53622;0.000;0.000;2023-03-01T15:24:04;4.20;;;3.72;;
66707;SDS011;53622;0.000;0.000;2023-03-01T15:26:49;4.63;;;4.18;;
66707;SDS011;53622;0.000;0.000;2023-03-01T15:29:22;4.20;;;3.78;;
66707;SDS011;53622;0.000;0.000;2023-03-01T15:31:59;5.53;;;3.88;;
66707;SDS011;53622;0.000;0.000;2023-03-01T15:34:34;4.97;;;4.10;;
66707;SDS011;53622;0.000;0.000;2023-03-01T15:37:05;4.50;;;4.10;;
66707;SDS011;53622;0.000;0.000;2023-03-01T15:42:47;6.95;;;4.95;;
66707;SDS011;53622;0.000;0.000;2023-03-01T15:45:21;6.57;;;4.30;;
66707;SDS011;53622;0.000;0.000;2023-03-01T15:47:54;4.15;;;3.75;;
66707;SDS011;53622;0.000;0.000;2023-03-01T15:50:26;7.68;;;4.78;;
66707;SDS011;53622;0.000;0.000;2023-03-01T15:52:57;6.03;;;4.47;;
66707;SDS011;53622;0.000;0.000;2023-03-01T15:55:30;6.13;;;4.10;;
66707;SDS011;53622;0.000;0.000;2023-03-01T15:58:01;5.25;;;4.32;;
66707;SDS011;53622;0.000;0.000;2023-03-01T16:00:33;5.50;;;4.47;;
66707;SDS011;53622;0.000;0.000;2023-03-01T16:03:03;4.28;;;3.88;;
66707;SDS011;53622;0.000;0.000;2023-03-01T16:05:33;5.07;;;4.55;;